アピア の空港の天気 - METARとTAF

ファレオロ国際空港(サモア) ( NSFA / APW ) - サモア アピア
飛行場実況気象(Metar)
観測時間07/17 21:00 WSST (07/17 08:00 UTC)
風向・風速東 2m/s
視程10km以上
天気現象
少しの雲 雲底高度 760m
全天の8割程度の雲 雲底高度 1650m
気温27℃
湿度89%
気圧1009hPa
METARNSFA 170800Z 08003KT 9999 FEW025 BKN054 27/25 Q1009 RMK NIL
過去の天気等 Google飛行場航空写真 Wunderground天気予報

過去48時間のMETAR

飛行場予報(TAF)
発表時間: 7/17 18:13 WSST (7/17 05:13 UTC)
予報対象時間: 17日19時 WSST ~ 18日19時 WSST
風向・風速東北東 4m/s
視程10km以上
少しの雲 雲底高度 610m
全天の4割程度の雲 雲底高度 1220m
全天の8割程度の雲 雲底高度 3050m
17日21時 WSST ~ 18日13時 WSST に 確率 30% で一時的に
視程5000m
天気現象雷雨
全天の8割程度の雲 雲底高度 460m
少しの積乱雲 雲底高度 550m
18日13時 WSST ~ 18日19時 WSST に 確率 40% で一時的に
視程5000m
天気現象雷雨
全天の8割程度の雲 雲底高度 460m
少しの積乱雲 雲底高度 550m
TAF NSFA 170513Z 1706/1806 07008KT 9999 FEW020 SCT040 BKN100
PROB30 TEMPO 1708/1724 5000 TSRA BKN015 FEW018CB
PROB40 TEMPO 1800/1806 5000 TSRA BKN015 FEW018CB